createdAt,value
2018-06-21T02:51:43.285Z,17.49
2018-06-21T02:52:43.238Z,17.52
2018-06-21T02:53:43.216Z,17.49
2018-06-21T02:54:43.195Z,17.49
2018-06-21T02:55:43.175Z,17.46
2018-06-21T02:56:43.153Z,17.45
2018-06-21T02:57:43.130Z,17.39
2018-06-21T02:58:43.110Z,17.38
2018-06-21T02:59:43.104Z,17.38
2018-06-21T03:00:43.069Z,17.29
2018-06-21T03:01:43.048Z,17.26
2018-06-21T03:02:43.026Z,17.29
2018-06-21T03:03:43.014Z,17.31
2018-06-21T03:04:42.986Z,17.29
2018-06-21T03:05:42.967Z,17.27
2018-06-21T03:06:42.946Z,17.27
2018-06-21T03:07:42.925Z,17.26
2018-06-21T03:08:42.907Z,17.23
2018-06-21T03:09:42.890Z,17.16
2018-06-21T03:10:42.866Z,17.26
2018-06-21T03:11:42.846Z,17.26
2018-06-21T03:12:42.827Z,17.27
2018-06-21T03:13:42.804Z,17.24
2018-06-21T03:14:42.785Z,17.26
2018-06-21T03:15:42.766Z,17.31
2018-06-21T03:16:42.747Z,17.31
2018-06-21T03:17:42.727Z,17.29
2018-06-21T03:18:42.706Z,17.31
2018-06-21T03:19:42.684Z,17.33
2018-06-21T03:20:42.703Z,17.34
2018-06-21T03:21:42.647Z,17.33
2018-06-21T03:22:42.627Z,17.24
2018-06-21T03:23:42.605Z,17.27
2018-06-21T03:24:42.702Z,17.27
2018-06-21T03:25:42.566Z,17.24
2018-06-21T03:26:42.546Z,17.29
2018-06-21T03:27:42.525Z,17.19
2018-06-21T03:28:42.506Z,17.24
2018-06-21T03:29:42.485Z,17.27
2018-06-21T03:30:42.465Z,17.31
2018-06-21T03:31:42.447Z,17.31
2018-06-21T03:32:42.425Z,17.30
2018-06-21T03:33:42.406Z,17.31
2018-06-21T03:34:42.385Z,17.30
2018-06-21T03:35:42.367Z,17.30
2018-06-21T03:36:42.346Z,17.30
2018-06-21T03:37:42.328Z,17.26
2018-06-21T03:38:42.309Z,17.36
2018-06-21T03:39:42.289Z,17.45
2018-06-21T03:40:42.269Z,17.39
2018-06-21T03:41:42.248Z,17.46
2018-06-21T03:42:42.227Z,17.49
2018-06-21T03:43:42.208Z,17.51
2018-06-21T03:44:42.190Z,17.49
2018-06-21T03:45:42.172Z,17.51
2018-06-21T03:46:42.147Z,17.54
2018-06-21T03:47:42.129Z,17.52
2018-06-21T03:48:42.110Z,17.49
2018-06-21T03:49:42.091Z,17.56
2018-06-21T03:50:42.071Z,17.65
2018-06-21T03:51:42.052Z,17.68
2018-06-21T03:52:42.032Z,17.57
2018-06-21T03:53:42.013Z,17.63
2018-06-21T03:54:41.999Z,17.64
2018-06-21T03:55:41.973Z,17.54
2018-06-21T03:56:41.954Z,17.54
2018-06-21T03:57:41.937Z,17.65
2018-06-21T03:58:41.914Z,17.67
2018-06-21T03:59:41.900Z,17.68
2018-06-21T04:00:41.876Z,17.71
2018-06-21T04:01:41.857Z,17.74
2018-06-21T04:02:41.834Z,17.64
2018-06-21T04:03:41.820Z,17.72
2018-06-21T04:04:41.800Z,17.71
2018-06-21T04:05:41.779Z,17.74
2018-06-21T04:06:41.759Z,17.80
2018-06-21T04:07:41.740Z,17.78
2018-06-21T04:08:41.721Z,17.83
2018-06-21T04:09:41.702Z,17.76
2018-06-21T04:10:41.682Z,17.87
2018-06-21T04:11:41.664Z,17.89
2018-06-21T04:12:41.644Z,17.87
2018-06-21T04:13:41.628Z,17.94
2018-06-21T04:14:41.605Z,17.94
2018-06-21T04:15:41.586Z,17.87
2018-06-21T04:16:41.565Z,17.94
2018-06-21T04:17:41.549Z,17.92
2018-06-21T04:18:41.530Z,17.87
2018-06-21T04:19:41.512Z,17.89
2018-06-21T04:20:41.491Z,17.90
2018-06-21T04:21:41.476Z,17.98
2018-06-21T04:22:41.451Z,17.94
2018-06-21T04:23:41.442Z,17.95
2018-06-21T04:24:41.413Z,18.05
2018-06-21T04:25:41.395Z,18.01
2018-06-21T04:26:41.374Z,18.16
2018-06-21T04:27:41.356Z,18.07
2018-06-21T04:28:41.337Z,18.07
2018-06-21T04:29:41.322Z,18.08
2018-06-21T04:30:41.300Z,18.07
2018-06-21T04:31:41.279Z,18.20
2018-06-21T04:32:41.262Z,18.19
2018-06-21T04:33:41.242Z,18.28
2018-06-21T04:34:41.223Z,18.19
2018-06-21T04:35:41.209Z,18.19
2018-06-21T04:36:41.184Z,18.22
2018-06-21T04:37:41.165Z,18.07
2018-06-21T04:38:41.146Z,18.16
2018-06-21T04:39:41.164Z,18.15
2018-06-21T04:40:41.122Z,18.13
2018-06-21T04:41:41.090Z,18.19
2018-06-21T04:42:41.070Z,18.08
2018-06-21T04:43:41.053Z,18.18
2018-06-21T04:44:41.039Z,18.15
2018-06-21T04:45:41.016Z,18.18
2018-06-21T04:46:40.995Z,18.13
2018-06-21T04:47:40.977Z,18.23
2018-06-21T04:48:40.963Z,18.19
2018-06-21T04:49:40.938Z,18.29
2018-06-21T04:50:40.937Z,18.31
2018-06-21T04:51:40.977Z,18.34
2018-06-21T04:52:40.890Z,18.34
2018-06-21T04:53:40.860Z,18.35
2018-06-21T04:54:40.845Z,18.31
2018-06-21T04:55:40.827Z,18.34
2018-06-21T04:56:40.807Z,18.28
2018-06-21T04:57:40.789Z,18.23
2018-06-21T04:58:40.768Z,18.16
2018-06-21T04:59:40.750Z,18.19
2018-06-21T05:00:40.735Z,18.28
2018-06-21T05:01:40.710Z,18.29
2018-06-21T05:02:40.699Z,18.28
2018-06-21T05:03:40.676Z,18.19
2018-06-21T05:04:40.658Z,18.23
2018-06-21T05:05:40.640Z,18.23
2018-06-21T05:06:40.617Z,18.28
2018-06-21T05:07:40.600Z,18.33
2018-06-21T05:08:40.581Z,18.31
2018-06-21T05:09:40.564Z,18.34
2018-06-21T05:10:40.543Z,18.35
2018-06-21T05:11:40.520Z,18.41
2018-06-21T05:12:40.507Z,18.20
2018-06-21T05:13:40.503Z,18.28
2018-06-21T05:14:40.469Z,18.35
2018-06-21T05:15:40.450Z,18.31
2018-06-21T05:16:40.431Z,18.28
2018-06-21T05:17:40.412Z,18.22
2018-06-21T05:18:40.394Z,18.23
2018-06-21T05:19:40.376Z,18.25
2018-06-21T05:20:40.357Z,18.22
2018-06-21T05:21:40.337Z,18.15
2018-06-21T05:22:40.319Z,17.98
2018-06-21T05:23:40.299Z,17.95
2018-06-21T05:24:40.281Z,17.80
2018-06-21T05:25:40.260Z,17.79
2018-06-21T05:26:40.241Z,17.70
2018-06-21T05:27:40.220Z,17.65
2018-06-21T05:28:40.204Z,17.60
2018-06-21T05:29:40.192Z,17.60
2018-06-21T05:30:40.163Z,17.67
2018-06-21T05:31:40.147Z,17.56
2018-06-21T05:32:40.125Z,17.51
2018-06-21T05:33:40.106Z,17.51
2018-06-21T05:34:40.096Z,17.52
2018-06-21T05:35:40.065Z,17.52
2018-06-21T05:36:40.052Z,17.52
2018-06-21T05:37:40.040Z,17.54
2018-06-21T05:38:40.009Z,17.52
2018-06-21T05:39:39.987Z,17.48
2018-06-21T05:40:39.970Z,17.42
2018-06-21T05:41:39.948Z,17.60
2018-06-21T05:42:39.925Z,17.51
2018-06-21T05:43:39.907Z,17.44
2018-06-21T05:44:39.887Z,17.39
2018-06-21T05:45:39.868Z,17.27
2018-06-21T05:46:39.850Z,17.45
2018-06-21T05:47:39.830Z,17.24
2018-06-21T05:48:39.811Z,17.31
2018-06-21T05:49:39.789Z,17.27
2018-06-21T05:50:39.768Z,17.30
2018-06-21T05:51:39.753Z,17.24
2018-06-21T05:52:39.731Z,17.27
2018-06-21T05:53:39.710Z,17.31
2018-06-21T05:54:39.687Z,17.36
2018-06-21T05:55:39.666Z,17.48
2018-06-21T05:56:39.650Z,17.45
2018-06-21T05:57:39.631Z,17.44
2018-06-21T05:58:39.606Z,17.52
2018-06-21T05:59:39.586Z,17.49
2018-06-21T06:00:39.566Z,17.42
2018-06-21T06:01:39.548Z,17.39
2018-06-21T06:02:39.528Z,17.29
2018-06-21T06:03:39.508Z,17.33
2018-06-21T06:04:39.488Z,17.24
2018-06-21T06:05:39.473Z,17.24
2018-06-21T06:06:39.449Z,17.24
2018-06-21T06:07:39.431Z,17.16
2018-06-21T06:08:39.599Z,17.22
2018-06-21T06:09:39.387Z,17.14
2018-06-21T06:10:39.366Z,17.09
2018-06-21T06:11:39.346Z,16.84
2018-06-21T06:12:39.325Z,16.83
2018-06-21T06:13:39.307Z,16.83
2018-06-21T06:14:39.287Z,16.75
2018-06-21T06:15:39.265Z,16.75
2018-06-21T06:16:39.249Z,16.78
2018-06-21T06:17:39.230Z,16.74
2018-06-21T06:18:39.206Z,16.75
2018-06-21T06:19:39.188Z,16.76
2018-06-21T06:20:39.167Z,16.72
2018-06-21T06:21:39.146Z,16.75
2018-06-21T06:22:39.127Z,16.66
2018-06-21T06:23:39.112Z,16.72
2018-06-21T06:24:39.085Z,16.75
2018-06-21T06:25:39.064Z,16.74
2018-06-21T06:26:39.048Z,16.72
2018-06-21T06:27:39.024Z,16.76
2018-06-21T06:28:39.063Z,16.57
2018-06-21T06:29:38.980Z,16.58
2018-06-21T06:30:38.962Z,16.49
2018-06-21T06:31:38.940Z,16.36
2018-06-21T06:32:38.922Z,16.43
2018-06-21T06:33:38.903Z,16.36
2018-06-21T06:34:38.917Z,16.26
2018-06-21T06:35:38.860Z,16.23
2018-06-21T06:36:38.843Z,16.29
2018-06-21T06:37:38.820Z,16.26
2018-06-21T06:38:38.804Z,16.12
2018-06-21T06:39:38.782Z,16.16
2018-06-21T06:40:38.764Z,16.10
2018-06-21T06:41:38.737Z,16.15
2018-06-21T06:42:38.716Z,16.05
2018-06-21T06:43:38.695Z,16.12
2018-06-21T06:44:38.676Z,16.08
2018-06-21T06:45:38.656Z,16.17
2018-06-21T06:46:38.636Z,16.15
2018-06-21T06:47:38.617Z,16.15
2018-06-21T06:48:38.595Z,16.12
2018-06-21T06:49:38.577Z,16.28
2018-06-21T06:50:38.551Z,16.24
2018-06-21T06:51:38.532Z,16.28
2018-06-21T06:52:38.512Z,16.38
2018-06-21T06:53:38.486Z,16.33
2018-06-21T06:54:38.526Z,16.35
2018-06-21T06:55:38.450Z,16.41
2018-06-21T06:56:38.429Z,16.43
2018-06-21T06:57:38.413Z,16.36
2018-06-21T06:58:38.389Z,16.46
2018-06-21T06:59:38.367Z,16.39
2018-06-21T07:00:38.347Z,16.33
2018-06-21T07:01:38.334Z,16.42
2018-06-21T07:02:38.307Z,16.33
2018-06-21T07:03:38.286Z,16.46
2018-06-21T07:04:38.266Z,16.41
2018-06-21T07:05:38.249Z,16.51
2018-06-21T07:06:38.227Z,16.42
2018-06-21T07:07:38.211Z,16.42
2018-06-21T07:08:38.187Z,16.51
2018-06-21T07:09:38.169Z,16.49
2018-06-21T07:10:38.145Z,16.53
2018-06-21T07:11:38.171Z,16.49
2018-06-21T07:12:38.105Z,16.50
2018-06-21T07:13:38.089Z,16.49
2018-06-21T07:14:38.064Z,16.43
2018-06-21T07:15:38.044Z,16.46
2018-06-21T07:16:38.025Z,16.47
2018-06-21T07:17:38.003Z,16.47
2018-06-21T07:18:37.983Z,16.47
2018-06-21T07:19:37.964Z,16.36
2018-06-21T07:20:37.943Z,16.28
2018-06-21T07:21:37.922Z,16.29
2018-06-21T07:22:37.901Z,16.33
2018-06-21T07:23:37.883Z,16.32
2018-06-21T07:24:37.861Z,16.21
2018-06-21T07:25:37.840Z,16.28
2018-06-21T07:26:37.820Z,16.26
2018-06-21T07:27:37.800Z,16.33
2018-06-21T07:28:37.776Z,16.29
2018-06-21T07:29:37.760Z,16.21
2018-06-21T07:30:37.737Z,16.17
2018-06-21T07:31:37.722Z,16.17
2018-06-21T07:32:37.695Z,16.10
2018-06-21T07:33:37.715Z,16.20
2018-06-21T07:34:37.659Z,16.29
2018-06-21T07:35:37.637Z,16.36
2018-06-21T07:36:37.615Z,16.43
2018-06-21T07:37:37.596Z,16.50
2018-06-21T07:38:37.575Z,16.64
2018-06-21T07:39:37.573Z,16.71
2018-06-21T07:40:37.539Z,16.76
2018-06-21T07:41:37.517Z,16.90
2018-06-21T07:42:37.496Z,16.96
2018-06-21T07:43:37.475Z,16.94
2018-06-21T07:44:37.459Z,16.78
2018-06-21T07:45:37.432Z,16.68
2018-06-21T07:46:37.421Z,16.58
2018-06-21T07:47:37.396Z,16.61
2018-06-21T07:48:37.382Z,16.64
2018-06-21T07:49:37.359Z,16.56
2018-06-21T07:50:37.337Z,16.64
2018-06-21T07:51:37.320Z,16.58
2018-06-21T07:52:37.299Z,16.58
2018-06-21T07:53:37.279Z,16.56
2018-06-21T07:54:37.263Z,16.57
2018-06-21T07:55:37.241Z,16.50
2018-06-21T07:56:37.221Z,16.49
2018-06-21T07:57:37.201Z,16.51
2018-06-21T07:58:37.180Z,16.54
2018-06-21T07:59:37.160Z,16.58
2018-06-21T08:00:37.148Z,16.68
2018-06-21T08:01:37.124Z,16.72
2018-06-21T08:02:37.108Z,16.90
2018-06-21T08:03:37.083Z,16.94
2018-06-21T08:04:37.070Z,17.09
2018-06-21T08:05:37.044Z,17.15
2018-06-21T08:06:37.026Z,17.22
2018-06-21T08:07:37.003Z,17.24
2018-06-21T08:08:36.986Z,17.19
2018-06-21T08:09:36.972Z,17.26
2018-06-21T08:10:36.946Z,17.45
2018-06-21T08:11:36.928Z,17.51
2018-06-21T08:12:36.908Z,17.44
2018-06-21T08:13:36.891Z,17.34
2018-06-21T08:14:36.869Z,17.45
2018-06-21T08:15:36.852Z,17.48
2018-06-21T08:16:36.831Z,17.71
2018-06-21T08:17:36.813Z,17.56
2018-06-21T08:18:36.796Z,17.71
2018-06-21T08:19:36.776Z,17.64
2018-06-21T08:20:36.758Z,17.56
2018-06-21T08:21:36.739Z,17.65
2018-06-21T08:22:36.720Z,17.76
2018-06-21T08:23:36.702Z,17.70
2018-06-21T08:24:36.682Z,17.79
2018-06-21T08:25:36.666Z,18.01
2018-06-21T08:26:36.647Z,17.98
2018-06-21T08:27:36.628Z,17.98
2018-06-21T08:28:36.609Z,17.92
2018-06-21T08:29:36.593Z,17.76
2018-06-21T08:30:36.574Z,17.63
2018-06-21T08:31:36.554Z,17.51
2018-06-21T08:32:36.532Z,17.54
2018-06-21T08:33:36.523Z,17.63
2018-06-21T08:34:36.500Z,17.72
2018-06-21T08:35:36.483Z,17.85
2018-06-21T08:36:36.458Z,17.76
2018-06-21T08:37:36.448Z,17.76
2018-06-21T08:38:36.428Z,17.83
2018-06-21T08:39:36.411Z,17.85
2018-06-21T08:40:36.393Z,17.90
2018-06-21T08:41:36.374Z,17.95
2018-06-21T08:42:36.355Z,18.23
2018-06-21T08:43:36.337Z,18.71
2018-06-21T08:44:36.321Z,18.84
2018-06-21T08:45:36.302Z,19.00
2018-06-21T08:46:36.282Z,18.80
2018-06-21T08:47:36.265Z,18.58
2018-06-21T08:48:36.248Z,18.47
2018-06-21T08:49:36.230Z,18.20
2018-06-21T08:50:36.213Z,18.23
2018-06-21T08:51:36.195Z,18.13
2018-06-21T08:52:36.179Z,18.44
2018-06-21T08:53:36.162Z,18.50
2018-06-21T08:54:36.144Z,18.63
2018-06-21T08:55:36.125Z,18.98
2018-06-21T08:56:36.107Z,19.19
2018-06-21T08:57:36.091Z,19.19
2018-06-21T08:58:36.073Z,19.22
2018-06-21T08:59:36.055Z,19.41
2018-06-21T09:00:36.038Z,19.47
2018-06-21T09:01:36.025Z,19.70
2018-06-21T09:02:36.004Z,19.63
2018-06-21T09:03:35.988Z,19.81
2018-06-21T09:04:35.973Z,19.73
2018-06-21T09:05:35.954Z,19.62
2018-06-21T09:06:35.937Z,19.07
2018-06-21T09:07:35.924Z,19.12
2018-06-21T09:08:35.904Z,19.33
2018-06-21T09:09:35.948Z,19.24
2018-06-21T09:10:35.872Z,19.14
2018-06-21T09:11:35.894Z,19.45
2018-06-21T09:12:35.840Z,19.56
2018-06-21T09:13:35.828Z,19.71
2018-06-21T09:14:35.807Z,19.89
2018-06-21T09:15:35.790Z,19.74
2018-06-21T09:16:35.778Z,19.49
2018-06-21T09:17:35.762Z,19.55
2018-06-21T09:18:35.742Z,19.24
2018-06-21T09:19:35.726Z,19.15
2018-06-21T09:20:35.711Z,19.18
2018-06-21T09:21:35.695Z,19.09
2018-06-21T09:22:35.682Z,18.60
2018-06-21T09:23:35.672Z,18.41
2018-06-21T09:24:35.651Z,18.26
2018-06-21T09:25:35.629Z,18.18
2018-06-21T09:26:35.617Z,18.00
2018-06-21T09:27:35.600Z,17.90
2018-06-21T09:28:35.579Z,17.52
2018-06-21T09:29:35.565Z,17.31
2018-06-21T09:30:35.546Z,16.91
2018-06-21T09:31:35.529Z,16.58
2018-06-21T09:32:35.515Z,16.42
2018-06-21T09:33:35.495Z,16.21
2018-06-21T09:34:35.476Z,15.97
2018-06-21T09:35:35.459Z,15.94
2018-06-21T09:36:35.442Z,15.90
2018-06-21T09:37:35.420Z,15.90
2018-06-21T09:38:35.401Z,15.95
2018-06-21T09:39:35.386Z,16.15
2018-06-21T09:40:35.364Z,16.53
2018-06-21T09:41:35.345Z,16.78
2018-06-21T09:42:35.323Z,17.49
2018-06-21T09:43:35.305Z,17.95
2018-06-21T09:44:35.286Z,18.28
2018-06-21T09:45:35.266Z,18.62
2018-06-21T09:46:35.249Z,18.88
2018-06-21T09:47:35.233Z,19.12
2018-06-21T09:48:35.215Z,19.49
2018-06-21T09:49:35.196Z,19.44
2018-06-21T09:50:35.175Z,19.79
2018-06-21T09:51:35.158Z,20.03
2018-06-21T09:52:35.203Z,19.85
2018-06-21T09:53:35.124Z,19.76
2018-06-21T09:54:35.108Z,20.18
2018-06-21T09:55:35.090Z,20.24
2018-06-21T09:56:35.076Z,20.47
2018-06-21T09:57:35.094Z,20.82
2018-06-21T09:58:35.040Z,20.55
2018-06-21T09:59:35.025Z,20.37
2018-06-21T10:00:35.011Z,20.72
2018-06-21T10:01:34.994Z,20.67
2018-06-21T10:02:34.979Z,20.62
2018-06-21T10:03:34.961Z,20.70
2018-06-21T10:04:34.945Z,20.48
2018-06-21T10:05:34.931Z,20.11
2018-06-21T10:06:34.920Z,20.04
2018-06-21T10:07:34.901Z,19.81
2018-06-21T10:08:34.888Z,20.09
2018-06-21T10:09:34.873Z,20.43
2018-06-21T10:10:34.853Z,20.62
2018-06-21T10:11:34.841Z,20.14
2018-06-21T10:12:34.825Z,20.10
2018-06-21T10:13:34.815Z,20.65
2018-06-21T10:14:34.795Z,20.82
2018-06-21T10:15:34.779Z,20.72
2018-06-21T10:16:34.766Z,20.72
2018-06-21T10:17:34.751Z,21.07
2018-06-21T10:18:34.749Z,21.35
2018-06-21T10:19:34.721Z,21.11
2018-06-21T10:20:34.739Z,21.52
2018-06-21T10:21:34.692Z,21.51
2018-06-21T10:22:34.678Z,22.04
2018-06-21T10:23:34.663Z,21.66
2018-06-21T10:24:34.652Z,21.39
2018-06-21T10:25:34.636Z,21.43
2018-06-21T10:26:34.624Z,21.58
2018-06-21T10:27:34.609Z,21.79
2018-06-21T10:28:34.594Z,21.50
2018-06-21T10:29:34.574Z,21.72
2018-06-21T10:30:34.567Z,21.02
2018-06-21T10:31:34.554Z,20.67
2018-06-21T10:32:34.539Z,20.21
2018-06-21T10:33:34.526Z,20.52
2018-06-21T10:34:34.510Z,20.04
2018-06-21T10:35:34.495Z,19.77
2018-06-21T10:36:34.488Z,19.82
2018-06-21T10:37:34.468Z,20.07
2018-06-21T10:38:34.454Z,20.06
2018-06-21T10:39:34.435Z,19.88
2018-06-21T10:40:34.424Z,19.79
2018-06-21T10:41:34.408Z,19.82
2018-06-21T10:42:34.397Z,19.44
2018-06-21T10:43:34.379Z,20.07
2018-06-21T10:44:34.363Z,20.85
2018-06-21T10:45:34.346Z,21.48
2018-06-21T10:46:34.333Z,21.80
2018-06-21T10:47:34.318Z,21.69
2018-06-21T10:48:34.305Z,22.06
2018-06-21T10:49:34.287Z,22.35
2018-06-21T10:50:34.272Z,22.20
2018-06-21T10:51:34.259Z,22.14
2018-06-21T10:52:34.244Z,22.13
2018-06-21T10:53:34.232Z,22.36
2018-06-21T10:54:34.217Z,22.69
2018-06-21T10:55:34.201Z,22.91
2018-06-21T10:56:34.191Z,22.38
2018-06-21T10:57:34.177Z,21.96
2018-06-21T10:58:34.163Z,21.32
2018-06-21T10:59:34.149Z,21.03
2018-06-21T11:00:34.136Z,21.37
2018-06-21T11:01:34.128Z,21.15
2018-06-21T11:02:34.116Z,20.58
2018-06-21T11:03:34.096Z,21.03
2018-06-21T11:04:34.085Z,21.79
2018-06-21T11:05:34.073Z,22.28
2018-06-21T11:06:34.060Z,21.70
2018-06-21T11:07:34.043Z,21.96
2018-06-21T11:08:34.046Z,22.43
2018-06-21T11:09:34.017Z,22.62
2018-06-21T11:10:34.004Z,23.08
2018-06-21T11:11:33.988Z,23.25
2018-06-21T11:12:33.977Z,23.40
2018-06-21T11:13:33.963Z,23.25
2018-06-21T11:14:33.950Z,23.28
2018-06-21T11:15:33.941Z,22.75
2018-06-21T11:16:33.924Z,22.15
2018-06-21T11:17:33.914Z,21.89
2018-06-21T11:18:33.904Z,22.51
2018-06-21T11:19:33.892Z,22.35
2018-06-21T11:20:33.880Z,22.60
2018-06-21T11:21:33.867Z,23.00
2018-06-21T11:22:33.856Z,22.91
2018-06-21T11:23:33.846Z,21.88
2018-06-21T11:24:33.835Z,21.37
2018-06-21T11:25:33.822Z,21.05
2018-06-21T11:26:33.808Z,20.63
2018-06-21T11:27:33.800Z,20.13
2018-06-21T11:28:33.786Z,20.32
2018-06-21T11:29:33.772Z,21.09
2018-06-21T11:30:33.757Z,21.79
2018-06-21T11:31:33.745Z,22.20
2018-06-21T11:32:33.730Z,22.55
2018-06-21T11:33:33.718Z,23.03
2018-06-21T11:34:33.705Z,23.23
2018-06-21T11:35:33.694Z,23.31
2018-06-21T11:36:33.682Z,23.80
2018-06-21T11:37:33.667Z,24.24
2018-06-21T11:38:33.655Z,24.39
2018-06-21T11:39:33.642Z,24.45
2018-06-21T11:40:33.632Z,24.28
2018-06-21T11:41:33.622Z,24.16
2018-06-21T11:42:33.611Z,24.42
2018-06-21T11:43:33.600Z,24.51
2018-06-21T11:44:33.589Z,24.05
2018-06-21T11:45:33.576Z,23.98
2018-06-21T11:46:33.567Z,23.76
2018-06-21T11:47:33.556Z,23.59
2018-06-21T11:48:33.544Z,23.68
2018-06-21T11:49:33.538Z,24.01
2018-06-21T11:50:33.523Z,24.16
2018-06-21T11:51:33.512Z,23.92
2018-06-21T11:52:33.505Z,24.16
2018-06-21T11:53:33.495Z,23.92
2018-06-21T11:54:33.734Z,24.26
2018-06-21T11:55:33.473Z,24.16
2018-06-21T11:56:33.464Z,24.58
2018-06-21T11:57:33.461Z,24.98
2018-06-21T11:58:33.448Z,24.66
2018-06-21T11:59:33.439Z,24.54
2018-06-21T12:00:33.427Z,24.24
2018-06-21T12:01:33.421Z,23.17
2018-06-21T12:02:33.407Z,23.39
2018-06-21T12:03:33.438Z,23.54
2018-06-21T12:04:33.437Z,22.93
2018-06-21T12:05:33.379Z,22.47
2018-06-21T12:06:33.368Z,22.50
2018-06-21T12:07:33.360Z,22.38
2018-06-21T12:08:33.350Z,22.88
2018-06-21T12:09:33.337Z,23.12
2018-06-21T12:10:33.326Z,23.08
2018-06-21T12:11:33.317Z,23.36
2018-06-21T12:12:33.307Z,23.54
2018-06-21T12:13:33.294Z,23.31
2018-06-21T12:14:33.283Z,23.56
2018-06-21T12:15:33.273Z,23.78
2018-06-21T12:16:33.263Z,24.21
2018-06-21T12:17:33.254Z,24.57
2018-06-21T12:18:33.244Z,24.48
2018-06-21T12:19:33.232Z,23.24
2018-06-21T12:20:33.223Z,23.25
2018-06-21T12:21:33.213Z,23.03
2018-06-21T12:22:33.203Z,23.56
2018-06-21T12:23:33.193Z,23.15
2018-06-21T12:24:33.183Z,23.73
2018-06-21T12:25:33.171Z,24.50
2018-06-21T12:26:33.164Z,24.53
2018-06-21T12:27:33.178Z,24.99
2018-06-21T12:28:33.154Z,24.69
2018-06-21T12:29:33.136Z,23.58
2018-06-21T12:30:33.133Z,23.02
2018-06-21T12:31:33.114Z,23.41
2018-06-21T12:32:33.150Z,23.73
2018-06-21T12:33:33.097Z,24.06
2018-06-21T12:34:33.081Z,24.29
2018-06-21T12:35:33.078Z,24.40
2018-06-21T12:36:33.068Z,24.54
2018-06-21T12:37:33.060Z,24.76
2018-06-21T12:38:33.055Z,24.89
2018-06-21T12:39:33.037Z,24.69
2018-06-21T12:40:33.031Z,25.06
2018-06-21T12:41:33.022Z,24.47
2018-06-21T12:42:33.012Z,24.23
2018-06-21T12:43:33.063Z,24.54
2018-06-21T12:44:32.998Z,24.42
2018-06-21T12:45:32.988Z,23.86
2018-06-21T12:46:32.997Z,23.63
2018-06-21T12:47:32.970Z,24.38
2018-06-21T12:48:32.965Z,24.60
2018-06-21T12:49:32.951Z,24.73
2018-06-21T12:50:32.941Z,25.04
2018-06-21T12:51:32.934Z,25.26
2018-06-21T12:52:32.959Z,25.54
2018-06-21T12:53:32.917Z,25.77
2018-06-21T12:54:32.911Z,25.87
2018-06-21T12:55:32.899Z,25.66
2018-06-21T12:56:32.891Z,26.10
2018-06-21T12:57:32.883Z,26.19
2018-06-21T12:58:32.874Z,25.23
2018-06-21T12:59:32.866Z,25.63
2018-06-21T13:00:32.859Z,25.03
2018-06-21T13:01:32.849Z,24.98
2018-06-21T13:02:32.837Z,24.92
2018-06-21T13:03:32.836Z,24.57
2018-06-21T13:04:32.827Z,24.21
2018-06-21T13:05:32.822Z,24.23
2018-06-21T13:06:32.808Z,24.13
2018-06-21T13:07:32.805Z,24.30
2018-06-21T13:08:32.793Z,24.57
2018-06-21T13:09:32.787Z,24.95
2018-06-21T13:10:32.777Z,25.40
2018-06-21T13:11:32.769Z,25.55
2018-06-21T13:12:32.764Z,25.87
2018-06-21T13:13:32.753Z,25.93
2018-06-21T13:14:32.746Z,25.63
2018-06-21T13:15:32.764Z,25.35
2018-06-21T13:16:32.729Z,24.54
2018-06-21T13:17:32.718Z,24.45
2018-06-21T13:18:32.713Z,24.26
2018-06-21T13:19:32.704Z,24.30
2018-06-21T13:20:32.751Z,24.84
2018-06-21T13:21:32.690Z,24.42
2018-06-21T13:22:32.680Z,24.42
2018-06-21T13:23:32.676Z,24.69
2018-06-21T13:24:32.668Z,24.42
2018-06-21T13:25:32.658Z,24.36
2018-06-21T13:26:32.649Z,24.74
2018-06-21T13:27:32.644Z,25.06
2018-06-21T13:28:32.633Z,25.38
2018-06-21T13:29:32.625Z,25.33
2018-06-21T13:30:32.617Z,25.35
2018-06-21T13:31:32.610Z,25.31
2018-06-21T13:32:32.602Z,24.57
2018-06-21T13:33:32.595Z,24.84
2018-06-21T13:34:32.592Z,24.66
2018-06-21T13:35:32.579Z,25.06
2018-06-21T13:36:32.575Z,25.36
2018-06-21T13:37:32.561Z,25.25
2018-06-21T13:38:32.555Z,25.47
2018-06-21T13:39:32.547Z,25.51
2018-06-21T13:40:32.539Z,25.55
2018-06-21T13:41:32.534Z,25.77
2018-06-21T13:42:32.527Z,24.03
2018-06-21T13:43:32.517Z,23.91
2018-06-21T13:44:32.512Z,24.85
2018-06-21T13:45:32.507Z,24.91
2018-06-21T13:46:32.495Z,24.43
2018-06-21T13:47:32.496Z,23.59
2018-06-21T13:48:32.481Z,23.65
2018-06-21T13:49:32.472Z,24.18
2018-06-21T13:50:32.463Z,24.73
2018-06-21T13:51:32.461Z,24.60
2018-06-21T13:52:32.448Z,24.32
2018-06-21T13:53:32.440Z,23.62
2018-06-21T13:54:32.458Z,22.85
2018-06-21T13:55:32.425Z,23.43
2018-06-21T13:56:32.417Z,23.66
2018-06-21T13:57:32.408Z,24.05
2018-06-21T13:58:32.397Z,24.14
2018-06-21T13:59:32.391Z,24.36
2018-06-21T14:00:32.412Z,24.20
2018-06-21T14:01:32.374Z,24.20
2018-06-21T14:02:32.365Z,23.71
2018-06-21T14:03:32.356Z,23.66
2018-06-21T14:04:32.348Z,24.32
2018-06-21T14:05:32.345Z,24.20
2018-06-21T14:06:32.331Z,24.58
2018-06-21T14:07:32.344Z,24.84
2018-06-21T14:08:32.566Z,25.10
2018-06-21T14:09:32.307Z,24.98
2018-06-21T14:10:32.300Z,24.17
2018-06-21T14:11:32.291Z,24.02
2018-06-21T14:12:32.288Z,24.48
2018-06-21T14:13:32.278Z,24.43
2018-06-21T14:14:32.266Z,24.21
2018-06-21T14:15:32.260Z,23.13
2018-06-21T14:16:32.251Z,23.76
2018-06-21T14:17:32.244Z,24.28
2018-06-21T14:18:32.238Z,24.28
2018-06-21T14:19:32.229Z,24.29
2018-06-21T14:20:32.237Z,24.10
2018-06-21T14:21:32.214Z,24.60
2018-06-21T14:22:32.210Z,24.76
2018-06-21T14:23:32.232Z,24.61
2018-06-21T14:24:32.196Z,23.96
2018-06-21T14:25:32.185Z,24.38
2018-06-21T14:26:32.184Z,24.69
2018-06-21T14:27:32.170Z,24.98
2018-06-21T14:28:32.164Z,24.38
2018-06-21T14:29:32.157Z,23.98
2018-06-21T14:30:32.148Z,23.91
2018-06-21T14:31:32.137Z,23.78
2018-06-21T14:32:32.131Z,23.88
2018-06-21T14:33:32.125Z,23.56
2018-06-21T14:34:32.116Z,23.63
2018-06-21T14:35:32.108Z,22.90
2018-06-21T14:36:32.101Z,22.53
2018-06-21T14:37:32.091Z,22.07
2018-06-21T14:38:32.082Z,21.98
2018-06-21T14:39:32.075Z,22.29
2018-06-21T14:40:32.065Z,22.28
2018-06-21T14:41:32.060Z,22.10
2018-06-21T14:42:32.050Z,21.58
2018-06-21T14:43:32.038Z,21.22
2018-06-21T14:44:32.029Z,20.96
2018-06-21T14:45:32.016Z,21.35
2018-06-21T14:46:32.006Z,21.99
2018-06-21T14:47:31.995Z,22.72
2018-06-21T14:48:31.983Z,23.39
2018-06-21T14:49:31.974Z,23.68
2018-06-21T14:50:31.962Z,23.87
2018-06-21T14:51:31.953Z,24.03
2018-06-21T14:52:31.941Z,24.26
2018-06-21T14:53:31.939Z,24.06
2018-06-21T14:54:31.923Z,23.47
2018-06-21T14:55:31.912Z,23.17
2018-06-21T14:56:31.904Z,22.38
2018-06-21T14:57:31.892Z,21.77
2018-06-21T14:58:31.884Z,21.55
2018-06-21T14:59:31.873Z,20.90
2018-06-21T15:00:31.868Z,20.52
2018-06-21T15:01:31.857Z,20.25
2018-06-21T15:02:31.841Z,20.16
2018-06-21T15:03:31.825Z,20.11
2018-06-21T15:04:31.815Z,19.71
2018-06-21T15:05:31.803Z,19.45
2018-06-21T15:06:31.791Z,19.41
2018-06-21T15:07:31.775Z,19.39
2018-06-21T15:08:31.764Z,19.48
2018-06-21T15:09:31.751Z,19.51
2018-06-21T15:10:31.743Z,19.51
2018-06-21T15:11:31.723Z,19.62
2018-06-21T15:12:31.708Z,19.52
2018-06-21T15:13:31.696Z,19.24
2018-06-21T15:14:31.693Z,19.09
2018-06-21T15:15:31.664Z,18.98
2018-06-21T15:16:31.649Z,18.86
2018-06-21T15:17:31.642Z,18.65
2018-06-21T15:18:31.618Z,18.58
2018-06-21T15:19:31.603Z,18.52
2018-06-21T15:20:31.587Z,18.38
2018-06-21T15:21:31.579Z,18.23
2018-06-21T15:22:31.552Z,18.20
2018-06-21T15:23:31.538Z,18.22
2018-06-21T15:24:31.521Z,18.08
2018-06-21T15:25:31.504Z,17.89
2018-06-21T15:26:31.489Z,17.97
2018-06-21T15:27:31.474Z,18.31
2018-06-21T15:28:31.456Z,18.49
2018-06-21T15:29:31.438Z,18.81
2018-06-21T15:30:31.422Z,19.29
2018-06-21T15:31:31.407Z,19.70
2018-06-21T15:32:31.583Z,19.92
2018-06-21T15:33:31.374Z,20.32
2018-06-21T15:34:31.364Z,20.40
2018-06-21T15:35:31.346Z,20.58
2018-06-21T15:36:31.332Z,20.70
2018-06-21T15:37:31.319Z,20.77
2018-06-21T15:38:31.302Z,20.69
2018-06-21T15:39:31.282Z,20.93
2018-06-21T15:40:31.277Z,21.20
2018-06-21T15:41:31.263Z,21.29
2018-06-21T15:42:31.253Z,21.39
2018-06-21T15:43:31.238Z,21.54